sensor_id;sensor_type;location;lat;lon;timestamp;temperature;humidity
51215;DHT22;41093;47.444;19.134;2022-08-01T00:00:28;15.60;77.20
51215;DHT22;41093;47.444;19.134;2022-08-01T00:02:53;15.60;77.50
51215;DHT22;41093;47.444;19.134;2022-08-01T00:05:19;15.60;77.30
51215;DHT22;41093;47.444;19.134;2022-08-01T00:07:45;15.50;77.10
51215;DHT22;41093;47.444;19.134;2022-08-01T00:10:13;15.50;77.20
51215;DHT22;41093;47.444;19.134;2022-08-01T00:12:41;15.40;77.50
51215;DHT22;41093;47.444;19.134;2022-08-01T00:15:08;15.40;77.40
51215;DHT22;41093;47.444;19.134;2022-08-01T00:17:35;15.40;77.40
51215;DHT22;41093;47.444;19.134;2022-08-01T00:20:02;15.30;77.90
51215;DHT22;41093;47.444;19.134;2022-08-01T00:22:30;15.30;77.90
51215;DHT22;41093;47.444;19.134;2022-08-01T00:24:55;15.30;78.30
51215;DHT22;41093;47.444;19.134;2022-08-01T00:27:21;15.20;78.60
51215;DHT22;41093;47.444;19.134;2022-08-01T00:29:47;15.20;78.40
51215;DHT22;41093;47.444;19.134;2022-08-01T00:32:13;15.20;78.30
51215;DHT22;41093;47.444;19.134;2022-08-01T00:34:38;15.10;78.50
51215;DHT22;41093;47.444;19.134;2022-08-01T00:37:04;15.10;78.60
51215;DHT22;41093;47.444;19.134;2022-08-01T00:39:30;15.10;78.90
51215;DHT22;41093;47.444;19.134;2022-08-01T00:41:58;15.00;79.00
51215;DHT22;41093;47.444;19.134;2022-08-01T00:44:23;15.00;79.10
51215;DHT22;41093;47.444;19.134;2022-08-01T00:46:49;14.90;79.60
51215;DHT22;41093;47.444;19.134;2022-08-01T00:49:15;14.90;79.70
51215;DHT22;41093;47.444;19.134;2022-08-01T00:51:41;14.80;79.90
51215;DHT22;41093;47.444;19.134;2022-08-01T00:54:07;14.80;80.30
51215;DHT22;41093;47.444;19.134;2022-08-01T00:56:33;14.70;80.50
51215;DHT22;41093;47.444;19.134;2022-08-01T00:58:59;14.70;80.80
51215;DHT22;41093;47.444;19.134;2022-08-01T01:01:25;14.70;81.10
51215;DHT22;41093;47.444;19.134;2022-08-01T01:03:51;14.60;81.30
51215;DHT22;41093;47.444;19.134;2022-08-01T01:06:38;14.60;81.60
51215;DHT22;41093;47.444;19.134;2022-08-01T01:11:47;14.60;82.70
51215;DHT22;41093;47.444;19.134;2022-08-01T01:14:25;14.50;82.60
51215;DHT22;41093;47.444;19.134;2022-08-01T01:16:53;14.50;82.90
51215;DHT22;41093;47.444;19.134;2022-08-01T01:19:23;14.50;82.90
51215;DHT22;41093;47.444;19.134;2022-08-01T01:27:35;14.40;83.00
51215;DHT22;41093;47.444;19.134;2022-08-01T01:30:02;14.40;82.90
51215;DHT22;41093;47.444;19.134;2022-08-01T01:32:44;14.40;82.90
51215;DHT22;41093;47.444;19.134;2022-08-01T01:35:22;14.50;83.00
51215;DHT22;41093;47.444;19.134;2022-08-01T01:37:53;14.50;82.60
51215;DHT22;41093;47.444;19.134;2022-08-01T01:40:21;14.50;82.50
51215;DHT22;41093;47.444;19.134;2022-08-01T01:42:49;14.60;81.90
51215;DHT22;41093;47.444;19.134;2022-08-01T01:45:18;14.60;81.50
51215;DHT22;41093;47.444;19.134;2022-08-01T01:47:45;14.70;81.40
51215;DHT22;41093;47.444;19.134;2022-08-01T01:50:11;14.70;81.40
51215;DHT22;41093;47.444;19.134;2022-08-01T01:52:39;14.60;81.40
51215;DHT22;41093;47.444;19.134;2022-08-01T01:55:07;14.70;81.40
51215;DHT22;41093;47.444;19.134;2022-08-01T01:57:37;14.70;81.40
51215;DHT22;41093;47.444;19.134;2022-08-01T02:00:04;14.60;81.70
51215;DHT22;41093;47.444;19.134;2022-08-01T02:02:33;14.60;81.70
51215;DHT22;41093;47.444;19.134;2022-08-01T02:05:00;14.60;81.70
51215;DHT22;41093;47.444;19.134;2022-08-01T02:07:27;14.60;81.90
51215;DHT22;41093;47.444;19.134;2022-08-01T02:09:54;14.50;82.20
51215;DHT22;41093;47.444;19.134;2022-08-01T02:12:22;14.50;82.40
51215;DHT22;41093;47.444;19.134;2022-08-01T02:14:50;14.40;82.50
51215;DHT22;41093;47.444;19.134;2022-08-01T02:17:20;14.40;82.60
51215;DHT22;41093;47.444;19.134;2022-08-01T02:19:46;14.40;82.70
51215;DHT22;41093;47.444;19.134;2022-08-01T02:22:42;14.40;83.20
51215;DHT22;41093;47.444;19.134;2022-08-01T02:25:18;14.30;83.10
51215;DHT22;41093;47.444;19.134;2022-08-01T02:27:52;14.30;83.30
51215;DHT22;41093;47.444;19.134;2022-08-01T02:30:19;14.20;83.50
51215;DHT22;41093;47.444;19.134;2022-08-01T02:32:51;14.20;83.70
51215;DHT22;41093;47.444;19.134;2022-08-01T02:35:26;14.20;83.80
51215;DHT22;41093;47.444;19.134;2022-08-01T02:37:54;14.20;84.10
51215;DHT22;41093;47.444;19.134;2022-08-01T02:40:21;14.10;84.00
51215;DHT22;41093;47.444;19.134;2022-08-01T02:42:51;14.10;84.20
51215;DHT22;41093;47.444;19.134;2022-08-01T02:45:19;14.10;84.20
51215;DHT22;41093;47.444;19.134;2022-08-01T02:47:47;14.10;84.30
51215;DHT22;41093;47.444;19.134;2022-08-01T02:50:15;14.10;84.40
51215;DHT22;41093;47.444;19.134;2022-08-01T02:52:44;14.00;84.70
51215;DHT22;41093;47.444;19.134;2022-08-01T02:55:12;14.00;84.80
51215;DHT22;41093;47.444;19.134;2022-08-01T02:57:39;14.10;84.80
51215;DHT22;41093;47.444;19.134;2022-08-01T03:00:06;14.10;85.00
51215;DHT22;41093;47.444;19.134;2022-08-01T03:02:34;14.10;84.90
51215;DHT22;41093;47.444;19.134;2022-08-01T03:05:02;14.20;84.80
51215;DHT22;41093;47.444;19.134;2022-08-01T03:07:28;14.30;84.60
51215;DHT22;41093;47.444;19.134;2022-08-01T03:09:56;14.40;84.20
51215;DHT22;41093;47.444;19.134;2022-08-01T03:12:27;14.40;83.80
51215;DHT22;41093;47.444;19.134;2022-08-01T03:14:55;14.40;83.30
51215;DHT22;41093;47.444;19.134;2022-08-01T03:17:25;14.50;83.00
51215;DHT22;41093;47.444;19.134;2022-08-01T03:19:53;14.60;82.80
51215;DHT22;41093;47.444;19.134;2022-08-01T03:22:21;14.50;82.90
51215;DHT22;41093;47.444;19.134;2022-08-01T03:24:52;14.50;82.80
51215;DHT22;41093;47.444;19.134;2022-08-01T03:27:20;14.50;82.90
51215;DHT22;41093;47.444;19.134;2022-08-01T03:29:48;14.50;82.90
51215;DHT22;41093;47.444;19.134;2022-08-01T03:32:15;14.40;83.20
51215;DHT22;41093;47.444;19.134;2022-08-01T03:34:42;14.50;83.20
51215;DHT22;41093;47.444;19.134;2022-08-01T03:37:27;14.40;83.50
51215;DHT22;41093;47.444;19.134;2022-08-01T03:40:06;14.40;83.50
51215;DHT22;41093;47.444;19.134;2022-08-01T03:42:37;14.40;83.50
51215;DHT22;41093;47.444;19.134;2022-08-01T03:45:08;14.40;83.70
51215;DHT22;41093;47.444;19.134;2022-08-01T03:47:35;14.50;83.80
51215;DHT22;41093;47.444;19.134;2022-08-01T03:50:06;14.50;83.90
51215;DHT22;41093;47.444;19.134;2022-08-01T03:52:32;14.60;83.70
51215;DHT22;41093;47.444;19.134;2022-08-01T03:55:03;14.70;83.70
51215;DHT22;41093;47.444;19.134;2022-08-01T03:57:31;14.80;83.80
51215;DHT22;41093;47.444;19.134;2022-08-01T03:59:58;14.90;83.80
51215;DHT22;41093;47.444;19.134;2022-08-01T04:02:28;15.10;83.40
51215;DHT22;41093;47.444;19.134;2022-08-01T04:04:54;15.30;83.00
51215;DHT22;41093;47.444;19.134;2022-08-01T04:07:29;15.40;82.60
51215;DHT22;41093;47.444;19.134;2022-08-01T04:09:55;15.90;82.20
51215;DHT22;41093;47.444;19.134;2022-08-01T04:12:21;16.70;80.60
51215;DHT22;41093;47.444;19.134;2022-08-01T04:14:47;17.60;76.90
51215;DHT22;41093;47.444;19.134;2022-08-01T04:17:14;18.50;73.10
51215;DHT22;41093;47.444;19.134;2022-08-01T04:19:41;19.50;70.40
51215;DHT22;41093;47.444;19.134;2022-08-01T04:22:08;20.90;66.50
51215;DHT22;41093;47.444;19.134;2022-08-01T04:24:35;22.10;60.60
51215;DHT22;41093;47.444;19.134;2022-08-01T04:27:03;23.30;55.80
51215;DHT22;41093;47.444;19.134;2022-08-01T04:29:30;24.50;52.20
51215;DHT22;41093;47.444;19.134;2022-08-01T04:31:58;25.50;49.30
51215;DHT22;41093;47.444;19.134;2022-08-01T04:34:28;26.60;46.50
51215;DHT22;41093;47.444;19.134;2022-08-01T04:36:56;27.40;42.70
51215;DHT22;41093;47.444;19.134;2022-08-01T04:39:24;28.30;42.30
51215;DHT22;41093;47.444;19.134;2022-08-01T04:41:56;29.30;40.50
51215;DHT22;41093;47.444;19.134;2022-08-01T04:44:24;30.20;38.40
51215;DHT22;41093;47.444;19.134;2022-08-01T04:46:51;31.20;36.90
51215;DHT22;41093;47.444;19.134;2022-08-01T04:49:20;32.10;35.60
51215;DHT22;41093;47.444;19.134;2022-08-01T04:51:53;33.00;33.80
51215;DHT22;41093;47.444;19.134;2022-08-01T04:54:34;33.70;31.50
51215;DHT22;41093;47.444;19.134;2022-08-01T04:57:06;33.50;30.80
51215;DHT22;41093;47.444;19.134;2022-08-01T04:59:33;33.80;31.10
51215;DHT22;41093;47.444;19.134;2022-08-01T05:02:17;34.20;30.00
51215;DHT22;41093;47.444;19.134;2022-08-01T05:04:45;34.70;29.70
51215;DHT22;41093;47.444;19.134;2022-08-01T05:07:11;35.40;28.60
51215;DHT22;41093;47.444;19.134;2022-08-01T05:09:38;35.30;28.40
51215;DHT22;41093;47.444;19.134;2022-08-01T05:12:04;36.30;27.20
51215;DHT22;41093;47.444;19.134;2022-08-01T05:14:31;36.70;27.30
51215;DHT22;41093;47.444;19.134;2022-08-01T05:16:58;36.70;26.40
51215;DHT22;41093;47.444;19.134;2022-08-01T05:19:25;37.30;25.40
51215;DHT22;41093;47.444;19.134;2022-08-01T05:21:50;38.10;25.00
51215;DHT22;41093;47.444;19.134;2022-08-01T05:24:17;38.90;24.40
51215;DHT22;41093;47.444;19.134;2022-08-01T05:26:43;39.50;23.30
51215;DHT22;41093;47.444;19.134;2022-08-01T05:29:08;40.00;22.20
51215;DHT22;41093;47.444;19.134;2022-08-01T05:31:34;40.40;22.40
51215;DHT22;41093;47.444;19.134;2022-08-01T05:34:01;41.30;21.30
51215;DHT22;41093;47.444;19.134;2022-08-01T05:36:27;40.90;21.50
51215;DHT22;41093;47.444;19.134;2022-08-01T05:38:53;41.50;20.70
51215;DHT22;41093;47.444;19.134;2022-08-01T05:41:19;42.20;21.10
51215;DHT22;41093;47.444;19.134;2022-08-01T05:43:44;42.70;20.60
51215;DHT22;41093;47.444;19.134;2022-08-01T05:46:10;42.70;20.30
51215;DHT22;41093;47.444;19.134;2022-08-01T05:48:36;43.20;19.90
51215;DHT22;41093;47.444;19.134;2022-08-01T05:51:02;43.90;19.70
51215;DHT22;41093;47.444;19.134;2022-08-01T05:53:28;44.30;19.00
51215;DHT22;41093;47.444;19.134;2022-08-01T05:55:54;44.40;19.10
51215;DHT22;41093;47.444;19.134;2022-08-01T05:58:20;44.90;18.70
51215;DHT22;41093;47.444;19.134;2022-08-01T06:00:46;45.30;18.10
51215;DHT22;41093;47.444;19.134;2022-08-01T06:03:12;45.80;17.70
51215;DHT22;41093;47.444;19.134;2022-08-01T06:05:39;45.60;17.70
51215;DHT22;41093;47.444;19.134;2022-08-01T06:08:05;45.50;18.40
51215;DHT22;41093;47.444;19.134;2022-08-01T06:10:32;45.70;18.00
51215;DHT22;41093;47.444;19.134;2022-08-01T06:12:57;45.90;17.80
51215;DHT22;41093;47.444;19.134;2022-08-01T06:15:25;46.60;17.10
51215;DHT22;41093;47.444;19.134;2022-08-01T06:17:50;47.10;16.70
51215;DHT22;41093;47.444;19.134;2022-08-01T06:20:16;46.70;16.90
51215;DHT22;41093;47.444;19.134;2022-08-01T06:22:42;46.90;17.30
51215;DHT22;41093;47.444;19.134;2022-08-01T06:25:08;47.00;16.50
51215;DHT22;41093;47.444;19.134;2022-08-01T06:27:34;47.00;16.80
51215;DHT22;41093;47.444;19.134;2022-08-01T06:30:01;47.00;16.70
51215;DHT22;41093;47.444;19.134;2022-08-01T06:32:27;47.00;16.40
51215;DHT22;41093;47.444;19.134;2022-08-01T06:34:52;47.10;16.30
51215;DHT22;41093;47.444;19.134;2022-08-01T06:37:18;47.00;16.40
51215;DHT22;41093;47.444;19.134;2022-08-01T06:39:44;47.30;16.40
51215;DHT22;41093;47.444;19.134;2022-08-01T06:42:10;47.70;16.00
51215;DHT22;41093;47.444;19.134;2022-08-01T06:44:40;47.80;16.30
51215;DHT22;41093;47.444;19.134;2022-08-01T06:47:06;48.00;16.30
51215;DHT22;41093;47.444;19.134;2022-08-01T06:49:31;46.70;17.00
51215;DHT22;41093;47.444;19.134;2022-08-01T06:51:57;47.80;16.40
51215;DHT22;41093;47.444;19.134;2022-08-01T06:54:23;48.90;15.90
51215;DHT22;41093;47.444;19.134;2022-08-01T06:56:49;48.90;15.60
51215;DHT22;41093;47.444;19.134;2022-08-01T06:59:15;49.40;15.60
51215;DHT22;41093;47.444;19.134;2022-08-01T07:01:40;49.60;15.40
51215;DHT22;41093;47.444;19.134;2022-08-01T07:04:06;49.90;15.40
51215;DHT22;41093;47.444;19.134;2022-08-01T07:06:32;50.00;15.10
51215;DHT22;41093;47.444;19.134;2022-08-01T07:08:58;50.00;15.70
51215;DHT22;41093;47.444;19.134;2022-08-01T07:11:25;51.00;15.00
51215;DHT22;41093;47.444;19.134;2022-08-01T07:13:51;51.20;14.10
51215;DHT22;41093;47.444;19.134;2022-08-01T07:16:17;51.10;14.40
51215;DHT22;41093;47.444;19.134;2022-08-01T07:18:43;50.40;14.90
51215;DHT22;41093;47.444;19.134;2022-08-01T07:21:08;51.20;14.60
51215;DHT22;41093;47.444;19.134;2022-08-01T07:23:34;51.70;13.90
51215;DHT22;41093;47.444;19.134;2022-08-01T07:26:00;52.00;13.80
51215;DHT22;41093;47.444;19.134;2022-08-01T07:28:30;51.70;13.80
51215;DHT22;41093;47.444;19.134;2022-08-01T07:30:56;53.40;13.30
51215;DHT22;41093;47.444;19.134;2022-08-01T07:33:21;52.90;13.10
51215;DHT22;41093;47.444;19.134;2022-08-01T07:35:48;53.00;13.20
51215;DHT22;41093;47.444;19.134;2022-08-01T07:38:14;53.50;13.30
51215;DHT22;41093;47.444;19.134;2022-08-01T07:40:42;52.90;13.30
51215;DHT22;41093;47.444;19.134;2022-08-01T07:43:08;53.40;13.00
51215;DHT22;41093;47.444;19.134;2022-08-01T07:45:34;53.10;12.90
51215;DHT22;41093;47.444;19.134;2022-08-01T07:48:07;52.60;13.30
51215;DHT22;41093;47.444;19.134;2022-08-01T07:50:33;53.80;12.60
51215;DHT22;41093;47.444;19.134;2022-08-01T07:52:59;54.00;12.00
51215;DHT22;41093;47.444;19.134;2022-08-01T07:55:25;53.50;12.70
51215;DHT22;41093;47.444;19.134;2022-08-01T07:57:52;53.20;12.60
51215;DHT22;41093;47.444;19.134;2022-08-01T08:00:17;54.20;12.40
51215;DHT22;41093;47.444;19.134;2022-08-01T08:02:44;54.50;12.00
51215;DHT22;41093;47.444;19.134;2022-08-01T08:05:10;54.70;11.50
51215;DHT22;41093;47.444;19.134;2022-08-01T08:07:36;55.00;11.90
51215;DHT22;41093;47.444;19.134;2022-08-01T08:10:04;55.30;11.90
51215;DHT22;41093;47.444;19.134;2022-08-01T08:12:30;55.00;11.30
51215;DHT22;41093;47.444;19.134;2022-08-01T08:14:57;52.80;12.70
51215;DHT22;41093;47.444;19.134;2022-08-01T08:17:25;52.80;12.80
51215;DHT22;41093;47.444;19.134;2022-08-01T08:19:51;54.00;11.80
51215;DHT22;41093;47.444;19.134;2022-08-01T08:22:17;55.00;12.40
51215;DHT22;41093;47.444;19.134;2022-08-01T08:24:43;55.70;11.40
51215;DHT22;41093;47.444;19.134;2022-08-01T08:27:09;55.40;11.80
51215;DHT22;41093;47.444;19.134;2022-08-01T08:29:35;54.00;12.30
51215;DHT22;41093;47.444;19.134;2022-08-01T08:32:01;52.10;13.30
51215;DHT22;41093;47.444;19.134;2022-08-01T08:34:28;50.00;14.00
51215;DHT22;41093;47.444;19.134;2022-08-01T08:36:55;48.20;14.60
51215;DHT22;41093;47.444;19.134;2022-08-01T08:39:22;45.50;16.00
51215;DHT22;41093;47.444;19.134;2022-08-01T08:41:48;43.00;17.40
51215;DHT22;41093;47.444;19.134;2022-08-01T08:44:14;41.10;19.40
51215;DHT22;41093;47.444;19.134;2022-08-01T08:46:47;39.90;21.00
51215;DHT22;41093;47.444;19.134;2022-08-01T08:49:17;38.50;22.80
51215;DHT22;41093;47.444;19.134;2022-08-01T08:51:44;37.50;23.70
51215;DHT22;41093;47.444;19.134;2022-08-01T08:54:12;37.20;23.90
51215;DHT22;41093;47.444;19.134;2022-08-01T08:56:39;36.40;24.70
51215;DHT22;41093;47.444;19.134;2022-08-01T08:59:05;35.60;25.00
51215;DHT22;41093;47.444;19.134;2022-08-01T09:01:32;34.90;25.90
51215;DHT22;41093;47.444;19.134;2022-08-01T09:03:59;34.70;26.50
51215;DHT22;41093;47.444;19.134;2022-08-01T09:06:25;34.70;26.60
51215;DHT22;41093;47.444;19.134;2022-08-01T09:08:50;34.60;27.10
51215;DHT22;41093;47.444;19.134;2022-08-01T09:11:16;34.20;26.70
51215;DHT22;41093;47.444;19.134;2022-08-01T09:14:10;34.30;27.20
51215;DHT22;41093;47.444;19.134;2022-08-01T09:16:40;34.20;27.30
51215;DHT22;41093;47.444;19.134;2022-08-01T09:19:18;34.00;27.70
51215;DHT22;41093;47.444;19.134;2022-08-01T09:22:02;34.20;28.60
51215;DHT22;41093;47.444;19.134;2022-08-01T09:24:30;34.20;27.60
51215;DHT22;41093;47.444;19.134;2022-08-01T09:26:57;34.40;25.80
51215;DHT22;41093;47.444;19.134;2022-08-01T09:29:30;34.40;26.40
51215;DHT22;41093;47.444;19.134;2022-08-01T09:32:05;34.50;26.30
51215;DHT22;41093;47.444;19.134;2022-08-01T09:34:31;34.50;26.20
51215;DHT22;41093;47.444;19.134;2022-08-01T09:37:00;34.30;27.10
51215;DHT22;41093;47.444;19.134;2022-08-01T09:39:28;34.40;26.20
51215;DHT22;41093;47.444;19.134;2022-08-01T09:41:56;34.60;25.40
51215;DHT22;41093;47.444;19.134;2022-08-01T09:44:42;34.50;25.50
51215;DHT22;41093;47.444;19.134;2022-08-01T09:47:09;34.70;25.90
51215;DHT22;41093;47.444;19.134;2022-08-01T09:49:36;35.00;25.90
51215;DHT22;41093;47.444;19.134;2022-08-01T09:52:20;35.20;25.70
51215;DHT22;41093;47.444;19.134;2022-08-01T09:55:00;35.40;25.50
51215;DHT22;41093;47.444;19.134;2022-08-01T09:57:28;35.90;24.30
51215;DHT22;41093;47.444;19.134;2022-08-01T09:59:57;35.90;24.30
51215;DHT22;41093;47.444;19.134;2022-08-01T10:02:32;36.30;24.70
51215;DHT22;41093;47.444;19.134;2022-08-01T10:04:59;37.40;23.70
51215;DHT22;41093;47.444;19.134;2022-08-01T10:07:25;38.00;23.80
51215;DHT22;41093;47.444;19.134;2022-08-01T10:09:51;38.90;21.60
51215;DHT22;41093;47.444;19.134;2022-08-01T10:12:19;38.70;21.80
51215;DHT22;41093;47.444;19.134;2022-08-01T10:14:47;38.90;22.20
51215;DHT22;41093;47.444;19.134;2022-08-01T10:17:17;39.30;22.60
51215;DHT22;41093;47.444;19.134;2022-08-01T10:19:43;39.80;21.50
51215;DHT22;41093;47.444;19.134;2022-08-01T10:22:11;40.00;21.10
51215;DHT22;41093;47.444;19.134;2022-08-01T10:24:39;40.00;21.40
51215;DHT22;41093;47.444;19.134;2022-08-01T10:27:08;40.00;21.10
51215;DHT22;41093;47.444;19.134;2022-08-01T10:29:59;40.40;21.20
51215;DHT22;41093;47.444;19.134;2022-08-01T10:32:35;40.80;20.20
51215;DHT22;41093;47.444;19.134;2022-08-01T10:35:04;40.20;21.50
51215;DHT22;41093;47.444;19.134;2022-08-01T10:37:30;40.20;21.60
51215;DHT22;41093;47.444;19.134;2022-08-01T10:39:57;40.00;21.30
51215;DHT22;41093;47.444;19.134;2022-08-01T10:42:23;39.70;22.10
51215;DHT22;41093;47.444;19.134;2022-08-01T10:44:49;39.60;21.90
51215;DHT22;41093;47.444;19.134;2022-08-01T10:47:37;39.30;21.40
51215;DHT22;41093;47.444;19.134;2022-08-01T10:50:45;38.70;22.60
51215;DHT22;41093;47.444;19.134;2022-08-01T10:53:24;38.40;22.60
51215;DHT22;41093;47.444;19.134;2022-08-01T10:58:28;40.40;19.80
51215;DHT22;41093;47.444;19.134;2022-08-01T11:06:50;40.00;21.40
51215;DHT22;41093;47.444;19.134;2022-08-01T11:09:44;39.00;22.10
51215;DHT22;41093;47.444;19.134;2022-08-01T11:12:14;38.70;22.70
51215;DHT22;41093;47.444;19.134;2022-08-01T11:17:34;38.90;21.50
51215;DHT22;41093;47.444;19.134;2022-08-01T11:20:10;39.00;22.60
51215;DHT22;41093;47.444;19.134;2022-08-01T11:38:44;38.90;22.80
51215;DHT22;41093;47.444;19.134;2022-08-01T11:41:22;39.10;22.70
51215;DHT22;41093;47.444;19.134;2022-08-01T11:44:00;38.70;21.80
51215;DHT22;41093;47.444;19.134;2022-08-01T11:46:48;38.30;23.30
51215;DHT22;41093;47.444;19.134;2022-08-01T11:55:06;38.00;25.30
51215;DHT22;41093;47.444;19.134;2022-08-01T11:57:33;38.20;24.80
51215;DHT22;41093;47.444;19.134;2022-08-01T12:00:10;38.10;23.70
51215;DHT22;41093;47.444;19.134;2022-08-01T12:02:36;38.00;25.30
51215;DHT22;41093;47.444;19.134;2022-08-01T12:05:10;37.90;25.90
51215;DHT22;41093;47.444;19.134;2022-08-01T12:07:38;37.20;24.70
51215;DHT22;41093;47.444;19.134;2022-08-01T12:10:16;36.70;26.20
51215;DHT22;41093;47.444;19.134;2022-08-01T12:12:47;36.50;26.00
51215;DHT22;41093;47.444;19.134;2022-08-01T12:15:16;36.60;26.40
51215;DHT22;41093;47.444;19.134;2022-08-01T12:17:43;36.70;25.20
51215;DHT22;41093;47.444;19.134;2022-08-01T12:20:14;36.20;25.60
51215;DHT22;41093;47.444;19.134;2022-08-01T12:22:40;36.30;26.20
51215;DHT22;41093;47.444;19.134;2022-08-01T12:27:33;36.10;25.80
51215;DHT22;41093;47.444;19.134;2022-08-01T12:29:59;36.00;28.00
51215;DHT22;41093;47.444;19.134;2022-08-01T12:32:30;35.80;28.10
51215;DHT22;41093;47.444;19.134;2022-08-01T12:35:23;35.60;27.50
51215;DHT22;41093;47.444;19.134;2022-08-01T12:37:50;35.70;27.60
51215;DHT22;41093;47.444;19.134;2022-08-01T12:40:21;35.60;27.60
51215;DHT22;41093;47.444;19.134;2022-08-01T12:42:53;35.40;26.80
51215;DHT22;41093;47.444;19.134;2022-08-01T12:45:23;35.00;29.00
51215;DHT22;41093;47.444;19.134;2022-08-01T12:47:50;34.70;28.50
51215;DHT22;41093;47.444;19.134;2022-08-01T12:50:19;34.40;29.40
51215;DHT22;41093;47.444;19.134;2022-08-01T12:52:46;34.20;30.50
51215;DHT22;41093;47.444;19.134;2022-08-01T12:55:22;34.10;31.10
51215;DHT22;41093;47.444;19.134;2022-08-01T12:58:02;33.70;31.20
51215;DHT22;41093;47.444;19.134;2022-08-01T13:00:29;33.50;31.60
51215;DHT22;41093;47.444;19.134;2022-08-01T13:03:23;33.30;31.40
51215;DHT22;41093;47.444;19.134;2022-08-01T13:05:56;33.00;31.50
51215;DHT22;41093;47.444;19.134;2022-08-01T13:08:30;32.90;31.70
51215;DHT22;41093;47.444;19.134;2022-08-01T13:11:10;33.00;32.00
51215;DHT22;41093;47.444;19.134;2022-08-01T13:13:41;33.10;32.70
51215;DHT22;41093;47.444;19.134;2022-08-01T13:16:08;33.10;31.50
51215;DHT22;41093;47.444;19.134;2022-08-01T13:18:35;33.00;33.80
51215;DHT22;41093;47.444;19.134;2022-08-01T13:21:14;32.90;31.70
51215;DHT22;41093;47.444;19.134;2022-08-01T13:23:42;32.90;32.50
51215;DHT22;41093;47.444;19.134;2022-08-01T13:29:12;32.90;32.50
51215;DHT22;41093;47.444;19.134;2022-08-01T13:31:39;32.60;32.40
51215;DHT22;41093;47.444;19.134;2022-08-01T13:34:05;32.60;33.30
51215;DHT22;41093;47.444;19.134;2022-08-01T13:36:31;32.50;33.50
51215;DHT22;41093;47.444;19.134;2022-08-01T13:38:58;32.40;32.80
51215;DHT22;41093;47.444;19.134;2022-08-01T13:41:42;32.40;32.80
51215;DHT22;41093;47.444;19.134;2022-08-01T13:44:09;32.20;31.70
51215;DHT22;41093;47.444;19.134;2022-08-01T13:46:37;32.00;31.00
51215;DHT22;41093;47.444;19.134;2022-08-01T13:49:04;31.80;31.60
51215;DHT22;41093;47.444;19.134;2022-08-01T13:51:30;31.70;31.80
51215;DHT22;41093;47.444;19.134;2022-08-01T13:53:56;31.80;32.10
51215;DHT22;41093;47.444;19.134;2022-08-01T13:56:22;31.70;32.00
51215;DHT22;41093;47.444;19.134;2022-08-01T13:58:48;31.40;32.40
51215;DHT22;41093;47.444;19.134;2022-08-01T14:01:15;31.50;33.50
51215;DHT22;41093;47.444;19.134;2022-08-01T14:03:41;31.50;33.00
51215;DHT22;41093;47.444;19.134;2022-08-01T14:06:07;31.40;32.70
51215;DHT22;41093;47.444;19.134;2022-08-01T14:08:32;31.30;32.70
51215;DHT22;41093;47.444;19.134;2022-08-01T14:10:58;31.00;31.80
51215;DHT22;41093;47.444;19.134;2022-08-01T14:13:25;31.00;33.00
51215;DHT22;41093;47.444;19.134;2022-08-01T14:15:51;31.00;33.30
51215;DHT22;41093;47.444;19.134;2022-08-01T14:18:17;31.00;33.40
51215;DHT22;41093;47.444;19.134;2022-08-01T14:20:43;30.90;33.20
51215;DHT22;41093;47.444;19.134;2022-08-01T14:23:09;30.70;32.80
51215;DHT22;41093;47.444;19.134;2022-08-01T14:25:36;30.40;32.70
51215;DHT22;41093;47.444;19.134;2022-08-01T14:28:06;30.20;33.00
51215;DHT22;41093;47.444;19.134;2022-08-01T14:30:32;30.30;33.30
51215;DHT22;41093;47.444;19.134;2022-08-01T14:32:58;30.30;34.30
51215;DHT22;41093;47.444;19.134;2022-08-01T14:35:24;30.50;35.10
51215;DHT22;41093;47.444;19.134;2022-08-01T14:37:50;30.70;35.70
51215;DHT22;41093;47.444;19.134;2022-08-01T14:40:16;30.90;34.30
51215;DHT22;41093;47.444;19.134;2022-08-01T14:42:42;30.90;33.90
51215;DHT22;41093;47.444;19.134;2022-08-01T14:45:11;30.90;34.30
51215;DHT22;41093;47.444;19.134;2022-08-01T14:47:39;30.90;34.30
51215;DHT22;41093;47.444;19.134;2022-08-01T14:50:07;30.90;34.50
51215;DHT22;41093;47.444;19.134;2022-08-01T14:52:34;30.90;34.40
51215;DHT22;41093;47.444;19.134;2022-08-01T14:55:00;31.00;34.60
51215;DHT22;41093;47.444;19.134;2022-08-01T14:57:26;30.90;35.40
51215;DHT22;41093;47.444;19.134;2022-08-01T14:59:52;30.90;35.40
51215;DHT22;41093;47.444;19.134;2022-08-01T15:02:18;30.90;33.70
51215;DHT22;41093;47.444;19.134;2022-08-01T15:04:45;30.80;34.30
51215;DHT22;41093;47.444;19.134;2022-08-01T15:07:11;30.70;33.90
51215;DHT22;41093;47.444;19.134;2022-08-01T15:09:37;30.60;34.90
51215;DHT22;41093;47.444;19.134;2022-08-01T15:12:03;30.50;34.40
51215;DHT22;41093;47.444;19.134;2022-08-01T15:14:29;30.40;35.40
51215;DHT22;41093;47.444;19.134;2022-08-01T15:17:23;30.30;34.90
51215;DHT22;41093;47.444;19.134;2022-08-01T15:19:52;30.30;35.70
51215;DHT22;41093;47.444;19.134;2022-08-01T15:22:19;30.30;35.60
51215;DHT22;41093;47.444;19.134;2022-08-01T15:24:47;30.20;35.40
51215;DHT22;41093;47.444;19.134;2022-08-01T15:27:13;30.10;36.00
51215;DHT22;41093;47.444;19.134;2022-08-01T15:29:38;29.90;36.20
51215;DHT22;41093;47.444;19.134;2022-08-01T15:32:05;29.90;36.80
51215;DHT22;41093;47.444;19.134;2022-08-01T15:34:33;30.00;37.00
51215;DHT22;41093;47.444;19.134;2022-08-01T15:37:00;29.90;37.20
51215;DHT22;41093;47.444;19.134;2022-08-01T15:39:26;29.90;36.80
51215;DHT22;41093;47.444;19.134;2022-08-01T15:41:52;29.90;36.90
51215;DHT22;41093;47.444;19.134;2022-08-01T15:44:18;29.90;37.10
51215;DHT22;41093;47.444;19.134;2022-08-01T15:46:48;29.90;37.00
51215;DHT22;41093;47.444;19.134;2022-08-01T15:49:15;29.90;37.70
51215;DHT22;41093;47.444;19.134;2022-08-01T15:51:41;29.80;37.30
51215;DHT22;41093;47.444;19.134;2022-08-01T15:54:08;29.70;37.50
51215;DHT22;41093;47.444;19.134;2022-08-01T15:56:35;29.60;37.10
51215;DHT22;41093;47.444;19.134;2022-08-01T15:59:01;29.60;37.10
51215;DHT22;41093;47.444;19.134;2022-08-01T16:01:27;29.60;37.00
51215;DHT22;41093;47.444;19.134;2022-08-01T16:03:55;29.50;37.10
51215;DHT22;41093;47.444;19.134;2022-08-01T16:06:21;29.40;36.70
51215;DHT22;41093;47.444;19.134;2022-08-01T16:08:47;29.30;37.00
51215;DHT22;41093;47.444;19.134;2022-08-01T16:11:13;29.30;37.40